createdAt,value
2022-11-19T00:01:26.948Z,16.20
2022-11-19T00:03:54.883Z,13.27
2022-11-19T00:06:24.618Z,13.75
2022-11-19T00:08:52.206Z,13.70
2022-11-19T00:11:43.642Z,13.93
2022-11-19T00:14:13.126Z,14.43
2022-11-19T00:16:40.773Z,16.35
2022-11-19T00:19:08.057Z,14.52
2022-11-19T00:21:35.343Z,15.85
2022-11-19T00:24:02.660Z,14.70
2022-11-19T00:26:29.997Z,15.32
2022-11-19T00:28:57.253Z,14.60
2022-11-19T00:31:24.645Z,14.25
2022-11-19T00:33:54.181Z,14.88
2022-11-19T00:36:22.671Z,14.73
2022-11-19T00:38:50.001Z,13.82
2022-11-19T00:41:17.209Z,14.52
2022-11-19T00:43:47.287Z,15.60
2022-11-19T00:46:34.980Z,15.50
2022-11-19T00:49:02.287Z,14.90
2022-11-19T00:51:31.393Z,15.70
2022-11-19T00:53:58.648Z,14.70
2022-11-19T00:56:27.472Z,14.15
2022-11-19T00:58:55.392Z,13.23
2022-11-19T01:01:24.892Z,15.40
2022-11-19T01:03:52.658Z,12.63
2022-11-19T01:06:21.839Z,14.93
2022-11-19T01:08:51.024Z,13.90
2022-11-19T01:11:30.111Z,13.80
2022-11-19T01:13:58.868Z,13.82
2022-11-19T01:16:34.818Z,13.25
2022-11-19T01:19:03.944Z,13.07
2022-11-19T01:21:33.213Z,13.27
2022-11-19T01:24:01.056Z,13.25
2022-11-19T01:26:29.211Z,12.25
2022-11-19T01:28:57.127Z,13.57
2022-11-19T01:31:26.895Z,12.70
2022-11-19T01:33:54.783Z,12.88
2022-11-19T01:36:24.665Z,12.70
2022-11-19T01:38:52.758Z,12.35
2022-11-19T01:41:26.087Z,14.10
2022-11-19T01:43:58.999Z,12.23
2022-11-19T01:46:29.457Z,14.02
2022-11-19T01:49:05.908Z,11.93
2022-11-19T01:51:46.044Z,13.02
2022-11-19T01:54:28.286Z,12.95
2022-11-19T01:57:00.322Z,12.57
2022-11-19T01:59:30.232Z,12.18
2022-11-19T02:01:57.825Z,13.35
2022-11-19T02:04:25.719Z,11.90
2022-11-19T02:06:55.089Z,12.88
2022-11-19T02:09:23.057Z,13.35
2022-11-19T02:12:09.093Z,12.18
2022-11-19T02:14:54.850Z,11.55
2022-11-19T02:18:04.774Z,11.45
2022-11-19T02:20:55.464Z,12.38
2022-11-19T02:23:46.354Z,13.32
2022-11-19T02:26:45.663Z,11.75
2022-11-19T02:29:31.695Z,10.82
2022-11-19T02:32:10.150Z,11.18
2022-11-19T02:34:57.357Z,11.93
2022-11-19T02:37:31.966Z,11.98
2022-11-19T02:42:53.326Z,11.00
2022-11-19T02:45:33.426Z,10.30
2022-11-19T02:48:24.649Z,10.77
2022-11-19T02:50:59.399Z,9.93
2022-11-19T02:56:12.859Z,10.43
2022-11-19T02:59:10.362Z,9.35
2022-11-19T03:02:01.108Z,8.82
2022-11-19T03:04:29.934Z,9.95
2022-11-19T03:07:09.149Z,9.63
2022-11-19T03:09:41.519Z,10.07
2022-11-19T03:12:19.466Z,9.77
2022-11-19T03:15:18.599Z,9.40
2022-11-19T03:18:12.856Z,9.10
2022-11-19T03:20:44.860Z,10.48
2022-11-19T03:23:37.200Z,12.13
2022-11-19T03:26:35.038Z,9.73
2022-11-19T03:29:06.065Z,8.75
2022-11-19T03:31:34.604Z,8.73
2022-11-19T03:34:08.148Z,9.70
2022-11-19T03:36:41.644Z,8.82
2022-11-19T03:39:18.245Z,8.82
2022-11-19T03:41:48.821Z,9.82
2022-11-19T03:44:33.572Z,8.95
2022-11-19T03:47:16.042Z,9.23
2022-11-19T03:49:48.785Z,9.65
2022-11-19T03:52:19.948Z,9.38
2022-11-19T03:54:47.658Z,9.05
2022-11-19T03:57:18.490Z,9.15
2022-11-19T03:59:47.009Z,8.57
2022-11-19T04:02:15.242Z,9.50
2022-11-19T04:04:42.586Z,9.27
2022-11-19T04:07:15.583Z,8.82
2022-11-19T04:09:43.276Z,9.30
2022-11-19T04:12:18.026Z,9.18
2022-11-19T04:17:13.034Z,9.32
2022-11-19T04:19:40.405Z,9.07
2022-11-19T04:22:08.007Z,8.45
2022-11-19T04:24:35.420Z,8.75
2022-11-19T04:27:03.336Z,9.50
2022-11-19T04:29:30.594Z,10.35
2022-11-19T04:31:57.854Z,9.50
2022-11-19T04:34:25.087Z,10.05
2022-11-19T04:36:52.308Z,9.82
2022-11-19T04:39:19.840Z,8.98
2022-11-19T04:41:47.371Z,10.23
2022-11-19T04:44:14.598Z,9.00
2022-11-19T04:46:41.858Z,9.32
2022-11-19T04:49:09.139Z,9.43
2022-11-19T04:51:36.362Z,11.00
2022-11-19T04:54:03.877Z,9.55
2022-11-19T04:56:31.025Z,10.30
2022-11-19T04:58:58.216Z,10.02
2022-11-19T05:01:25.484Z,9.63
2022-11-19T05:03:52.933Z,10.15
2022-11-19T05:06:20.273Z,10.20
2022-11-19T05:08:47.504Z,11.15
2022-11-19T05:11:14.749Z,9.38
2022-11-19T05:13:42.001Z,10.05
2022-11-19T05:16:09.264Z,9.90
2022-11-19T05:18:36.529Z,9.75
2022-11-19T05:21:03.884Z,10.57
2022-11-19T05:23:31.118Z,11.00
2022-11-19T05:25:58.475Z,10.15
2022-11-19T05:28:38.141Z,10.82
2022-11-19T05:31:06.776Z,11.88
2022-11-19T05:33:34.746Z,10.93
2022-11-19T05:36:02.703Z,11.38
2022-11-19T05:38:30.056Z,11.60
2022-11-19T05:40:57.448Z,11.82
2022-11-19T05:43:24.697Z,11.25
2022-11-19T05:45:51.995Z,11.75
2022-11-19T05:48:19.263Z,11.68
2022-11-19T05:50:46.584Z,12.77
2022-11-19T05:53:13.795Z,11.82
2022-11-19T05:55:41.100Z,12.88
2022-11-19T05:58:08.285Z,12.38
2022-11-19T06:00:35.506Z,14.02
2022-11-19T06:03:02.848Z,11.82
2022-11-19T06:05:30.125Z,12.32
2022-11-19T06:07:57.471Z,12.93
2022-11-19T06:10:24.717Z,12.85
2022-11-19T06:12:51.924Z,13.10
2022-11-19T06:15:19.268Z,12.25
2022-11-19T06:17:46.485Z,12.60
2022-11-19T06:20:13.813Z,13.45
2022-11-19T06:22:41.129Z,13.40
2022-11-19T06:25:08.809Z,13.30
2022-11-19T06:27:36.155Z,13.60
2022-11-19T06:30:03.887Z,14.57
2022-11-19T06:32:31.153Z,13.07
2022-11-19T06:34:58.457Z,15.55
2022-11-19T06:37:25.713Z,14.43
2022-11-19T06:39:54.144Z,15.05
2022-11-19T06:42:37.223Z,15.45
2022-11-19T06:45:09.999Z,14.70
2022-11-19T06:47:38.260Z,15.18
2022-11-19T06:50:07.270Z,15.27
2022-11-19T06:52:34.553Z,14.75
2022-11-19T06:55:01.832Z,15.95
2022-11-19T06:57:29.141Z,16.40
2022-11-19T06:59:56.432Z,16.30
2022-11-19T07:02:23.705Z,15.88
2022-11-19T07:04:50.946Z,16.00
2022-11-19T07:07:18.743Z,15.50
2022-11-19T07:09:46.098Z,15.40
2022-11-19T07:12:13.446Z,15.80
2022-11-19T07:14:40.717Z,15.98
2022-11-19T07:17:08.130Z,15.90
2022-11-19T07:19:35.409Z,16.48
2022-11-19T07:22:02.644Z,18.00
2022-11-19T07:24:29.922Z,16.52
2022-11-19T07:26:57.266Z,16.33
2022-11-19T07:29:24.519Z,16.42
2022-11-19T07:31:53.331Z,17.27
2022-11-19T07:34:21.028Z,16.90
2022-11-19T07:36:48.545Z,16.02
2022-11-19T07:39:16.059Z,16.65
2022-11-19T07:42:02.021Z,16.98
2022-11-19T07:44:29.267Z,16.52
2022-11-19T07:46:56.508Z,16.58
2022-11-19T07:49:24.981Z,16.20
2022-11-19T07:51:53.211Z,16.90
2022-11-19T07:54:20.517Z,17.33
2022-11-19T07:56:47.751Z,16.52
2022-11-19T07:59:15.115Z,15.52
2022-11-19T08:01:42.627Z,16.67
2022-11-19T08:04:10.203Z,17.05
2022-11-19T08:06:37.567Z,16.70
2022-11-19T08:09:05.499Z,16.83
2022-11-19T08:11:32.882Z,17.60
2022-11-19T08:14:03.926Z,17.00
2022-11-19T08:16:51.906Z,17.40
2022-11-19T08:19:20.247Z,18.52
2022-11-19T08:21:48.129Z,17.58
2022-11-19T08:24:17.921Z,18.30
2022-11-19T08:26:46.095Z,18.63
2022-11-19T08:29:16.492Z,19.08
2022-11-19T08:31:45.261Z,18.35
2022-11-19T08:34:13.017Z,19.10
2022-11-19T08:36:40.467Z,18.83
2022-11-19T08:39:08.059Z,18.58
2022-11-19T08:41:54.308Z,19.75
2022-11-19T08:44:22.421Z,19.75
2022-11-19T08:46:50.645Z,21.17
2022-11-19T08:49:18.213Z,20.40
2022-11-19T08:51:45.474Z,20.52
2022-11-19T08:54:13.297Z,20.35
2022-11-19T08:56:40.643Z,21.85
2022-11-19T08:59:08.270Z,21.20
2022-11-19T09:01:35.746Z,22.92
2022-11-19T09:04:03.166Z,21.60
2022-11-19T09:06:30.805Z,22.23
2022-11-19T09:08:58.453Z,21.63
2022-11-19T09:11:25.752Z,23.48
2022-11-19T09:13:53.082Z,22.85
2022-11-19T09:16:20.305Z,23.92
2022-11-19T09:18:47.666Z,22.85
2022-11-19T09:21:15.345Z,23.45
2022-11-19T09:23:42.747Z,28.63
2022-11-19T09:26:15.329Z,25.75
2022-11-19T09:28:43.958Z,26.05
2022-11-19T09:31:14.701Z,26.70
2022-11-19T09:33:45.642Z,25.75
2022-11-19T09:36:14.550Z,24.40
2022-11-19T09:38:42.026Z,26.85
2022-11-19T09:41:17.882Z,26.02
2022-11-19T09:44:20.887Z,25.60
2022-11-19T09:47:06.305Z,25.77
2022-11-19T09:49:43.140Z,25.92
2022-11-19T09:52:19.687Z,26.52
2022-11-19T09:54:55.673Z,25.75
2022-11-19T09:57:28.411Z,27.15
2022-11-19T10:00:00.121Z,25.77
2022-11-19T10:02:28.237Z,27.52
2022-11-19T10:04:55.657Z,25.02
2022-11-19T10:08:09.769Z,24.90
2022-11-19T10:10:46.954Z,25.70
2022-11-19T10:13:37.581Z,25.42
2022-11-19T10:16:19.905Z,27.05
2022-11-19T10:18:53.347Z,27.60
2022-11-19T10:21:38.364Z,27.15
2022-11-19T10:24:18.358Z,26.42
2022-11-19T10:26:50.993Z,25.77
2022-11-19T10:29:23.418Z,25.95
2022-11-19T10:31:52.173Z,26.00
2022-11-19T10:34:27.576Z,25.88
2022-11-19T10:36:57.265Z,26.55
2022-11-19T10:39:39.986Z,29.08
2022-11-19T10:42:29.260Z,24.65
2022-11-19T10:45:03.202Z,25.67
2022-11-19T10:48:05.931Z,23.15
2022-11-19T10:50:36.385Z,25.27
2022-11-19T10:53:43.842Z,21.88
2022-11-19T10:56:21.366Z,22.20
2022-11-19T10:59:18.529Z,24.73
2022-11-19T11:01:50.035Z,22.05
2022-11-19T11:04:22.080Z,22.88
2022-11-19T11:06:57.637Z,24.67
2022-11-19T11:09:30.990Z,24.77
2022-11-19T11:12:34.112Z,22.70
2022-11-19T11:15:25.619Z,24.50
2022-11-19T11:18:10.724Z,26.23
2022-11-19T11:23:27.654Z,26.10
2022-11-19T11:26:17.789Z,24.73
2022-11-19T11:29:25.279Z,25.52
2022-11-19T11:31:53.710Z,24.90
2022-11-19T11:34:29.659Z,27.90
2022-11-19T11:36:58.929Z,24.42
2022-11-19T11:39:29.880Z,22.20
2022-11-19T11:42:06.034Z,23.55
2022-11-19T11:44:37.063Z,21.92
2022-11-19T11:47:16.256Z,28.50
2022-11-19T11:49:49.569Z,25.95
2022-11-19T11:52:26.711Z,22.83
2022-11-19T11:55:00.268Z,20.80
2022-11-19T11:57:31.845Z,26.80
2022-11-19T11:59:59.915Z,22.17
2022-11-19T12:02:30.871Z,22.25
2022-11-19T12:05:05.177Z,20.58
2022-11-19T12:07:53.898Z,27.15
2022-11-19T12:10:30.161Z,21.38
2022-11-19T12:13:00.328Z,21.00
2022-11-19T12:15:46.302Z,23.85
2022-11-19T12:18:42.199Z,20.92
2022-11-19T12:21:24.662Z,20.90
2022-11-19T12:24:06.810Z,21.98
2022-11-19T12:26:46.512Z,22.13
2022-11-19T12:29:52.316Z,21.38
2022-11-19T12:35:26.898Z,24.05
2022-11-19T12:38:12.731Z,21.85
2022-11-19T12:40:49.395Z,24.08
2022-11-19T12:43:40.080Z,19.60
2022-11-19T12:46:30.417Z,21.38
2022-11-19T12:49:22.576Z,21.10
2022-11-19T13:02:59.400Z,21.40
2022-11-19T13:08:11.738Z,21.83
2022-11-19T13:11:18.341Z,21.83
2022-11-19T13:13:51.054Z,20.80
2022-11-19T13:16:21.759Z,19.98
2022-11-19T13:18:52.373Z,23.33
2022-11-19T13:21:40.437Z,19.80
2022-11-19T13:24:36.050Z,23.02
2022-11-19T13:27:06.313Z,22.73
2022-11-19T13:29:40.454Z,19.50
2022-11-19T13:32:41.017Z,22.02
2022-11-19T13:35:25.058Z,18.88
2022-11-19T13:38:14.372Z,20.75
2022-11-19T13:40:55.820Z,24.67
2022-11-19T13:43:42.292Z,23.35
2022-11-19T13:46:21.429Z,31.63
2022-11-19T13:49:00.925Z,27.63
2022-11-19T13:51:48.951Z,38.08
2022-11-19T13:54:27.601Z,44.40
2022-11-19T13:56:58.081Z,50.15
2022-11-19T13:59:30.884Z,49.67
2022-11-19T14:02:04.258Z,34.72
2022-11-19T14:04:53.282Z,31.38
2022-11-19T14:07:52.312Z,33.08
2022-11-19T14:10:29.213Z,29.85
2022-11-19T14:13:20.549Z,25.75
2022-11-19T14:16:21.132Z,23.30
2022-11-19T14:19:11.497Z,29.02
2022-11-19T14:21:57.284Z,32.38
2022-11-19T14:24:43.107Z,25.17
2022-11-19T14:27:23.834Z,27.80
2022-11-19T14:29:52.298Z,25.65
2022-11-19T14:32:29.087Z,23.80
2022-11-19T14:35:02.328Z,37.88
2022-11-19T14:37:51.938Z,63.15
2022-11-19T14:40:28.273Z,65.47
2022-11-19T14:43:20.036Z,49.72
2022-11-19T14:46:10.567Z,55.30
2022-11-19T14:48:41.011Z,61.97
2022-11-19T14:51:18.908Z,57.15
2022-11-19T14:54:12.537Z,38.38
2022-11-19T14:56:40.913Z,32.83
2022-11-19T14:59:20.221Z,36.72
2022-11-19T15:02:18.526Z,31.05
2022-11-19T15:05:16.661Z,34.35
2022-11-19T15:07:55.916Z,31.95
2022-11-19T15:10:28.315Z,34.20
2022-11-19T15:13:19.585Z,33.13
2022-11-19T15:15:50.309Z,33.78
2022-11-19T15:18:39.859Z,48.85
2022-11-19T15:21:10.398Z,51.22
2022-11-19T15:23:46.569Z,31.95
2022-11-19T15:26:32.836Z,41.35
2022-11-19T15:29:42.887Z,33.38
2022-11-19T15:32:40.982Z,39.83
2022-11-19T15:35:17.325Z,35.00
2022-11-19T15:37:59.023Z,22.55
2022-11-19T15:40:29.875Z,28.25
2022-11-19T15:43:36.276Z,31.10
2022-11-19T15:46:19.624Z,26.92
2022-11-19T15:49:12.109Z,29.23
2022-11-19T15:52:02.457Z,35.05
2022-11-19T15:54:32.468Z,38.30
2022-11-19T15:57:07.042Z,44.15
2022-11-19T15:59:38.253Z,47.08
2022-11-19T16:02:16.961Z,30.55
2022-11-19T16:04:44.359Z,25.98
2022-11-19T16:07:12.417Z,33.25
2022-11-19T16:09:40.442Z,29.55
2022-11-19T16:12:36.520Z,29.58
2022-11-19T16:15:33.570Z,34.42
2022-11-19T16:18:00.868Z,27.30
2022-11-19T16:20:28.165Z,30.45
2022-11-19T16:23:00.918Z,30.55
2022-11-19T16:25:35.440Z,23.48
2022-11-19T16:28:10.960Z,17.92
2022-11-19T16:30:53.250Z,19.45
2022-11-19T16:33:28.836Z,21.10
2022-11-19T16:36:19.662Z,19.58
2022-11-19T16:38:51.629Z,16.17
2022-11-19T16:41:41.021Z,17.45
2022-11-19T16:44:21.373Z,15.98
2022-11-19T16:46:49.499Z,23.65
2022-11-19T16:49:48.959Z,18.95
2022-11-19T16:52:45.502Z,19.08
2022-11-19T16:55:18.832Z,20.77
2022-11-19T16:57:54.692Z,23.40
2022-11-19T17:00:25.032Z,25.98
2022-11-19T17:02:52.722Z,15.35
2022-11-19T17:05:24.700Z,23.58
2022-11-19T17:07:53.790Z,19.00
2022-11-19T17:10:24.563Z,20.67
2022-11-19T17:12:59.845Z,24.23
2022-11-19T17:15:40.516Z,19.08
2022-11-19T17:18:13.513Z,26.88
2022-11-19T17:20:43.561Z,23.73
2022-11-19T17:23:16.784Z,24.48
2022-11-19T17:25:55.934Z,19.15
2022-11-19T17:28:36.003Z,19.20
2022-11-19T17:31:19.312Z,21.15
2022-11-19T17:34:11.839Z,18.15
2022-11-19T17:36:39.938Z,21.83
2022-11-19T17:39:14.892Z,23.88
2022-11-19T17:42:02.714Z,15.80
2022-11-19T17:44:36.332Z,13.20
2022-11-19T17:47:21.365Z,14.25
2022-11-19T17:49:50.271Z,18.05
2022-11-19T17:52:28.894Z,19.15
2022-11-19T17:55:09.024Z,23.48
2022-11-19T17:57:42.234Z,23.63
2022-11-19T18:00:10.962Z,35.15
2022-11-19T18:02:38.482Z,22.42
2022-11-19T18:05:19.515Z,19.90
2022-11-19T18:07:46.869Z,25.10
2022-11-19T18:10:14.420Z,20.45
2022-11-19T18:12:41.683Z,24.85
2022-11-19T18:15:20.021Z,26.05
2022-11-19T18:17:47.650Z,23.92
2022-11-19T18:20:14.990Z,21.38
2022-11-19T18:22:42.310Z,24.98
2022-11-19T18:25:15.700Z,23.65
2022-11-19T18:27:43.309Z,24.35
2022-11-19T18:30:11.446Z,24.70
2022-11-19T18:32:38.829Z,19.52
2022-11-19T18:35:17.904Z,18.10
2022-11-19T18:37:45.819Z,23.25
2022-11-19T18:40:14.985Z,19.67
2022-11-19T18:43:02.847Z,20.50
2022-11-19T18:45:30.557Z,19.52
2022-11-19T18:47:57.908Z,21.50
2022-11-19T18:50:29.518Z,23.88
2022-11-19T18:52:57.111Z,16.85
2022-11-19T18:55:24.437Z,17.85
2022-11-19T18:57:51.681Z,21.92
2022-11-19T19:00:19.181Z,13.88
2022-11-19T19:02:46.428Z,16.98
2022-11-19T19:05:13.693Z,20.00
2022-11-19T19:07:40.945Z,20.02
2022-11-19T19:10:08.518Z,18.60
2022-11-19T19:12:35.780Z,18.23
2022-11-19T19:15:03.510Z,17.23
2022-11-19T19:17:31.429Z,14.93
2022-11-19T19:19:58.629Z,15.73
2022-11-19T19:22:25.876Z,18.52
2022-11-19T19:24:57.990Z,20.92
2022-11-19T19:27:25.900Z,18.10
2022-11-19T19:29:53.260Z,14.35
2022-11-19T19:32:20.533Z,19.25
2022-11-19T19:34:47.870Z,30.88
2022-11-19T19:37:15.242Z,13.98
2022-11-19T19:39:42.471Z,16.02
2022-11-19T19:42:09.977Z,14.07
2022-11-19T19:44:37.650Z,15.68
2022-11-19T19:47:05.351Z,11.77
2022-11-19T19:49:37.509Z,20.88
2022-11-19T19:52:06.288Z,17.63
2022-11-19T19:54:33.597Z,12.25
2022-11-19T19:57:00.850Z,12.27
2022-11-19T19:59:28.075Z,15.15
2022-11-19T20:01:55.452Z,12.15
2022-11-19T20:04:22.788Z,11.32
2022-11-19T20:06:51.757Z,16.08
2022-11-19T20:09:19.108Z,13.93
2022-11-19T20:11:46.934Z,11.82
2022-11-19T20:14:14.223Z,12.10
2022-11-19T20:16:42.063Z,11.32
2022-11-19T20:19:14.391Z,15.95
2022-11-19T20:21:41.846Z,15.02
2022-11-19T20:24:12.667Z,14.05
2022-11-19T20:26:42.109Z,13.20
2022-11-19T20:29:13.156Z,12.77
2022-11-19T20:31:44.634Z,13.98
2022-11-19T20:34:12.837Z,11.15
2022-11-19T20:36:40.244Z,16.35
2022-11-19T20:39:07.649Z,14.50
2022-11-19T20:41:53.261Z,13.38
2022-11-19T20:44:21.048Z,14.75
2022-11-19T20:46:57.805Z,9.73
2022-11-19T20:49:27.317Z,9.43
2022-11-19T20:51:55.646Z,9.35
2022-11-19T20:54:23.581Z,12.90
2022-11-19T20:56:52.859Z,9.50
2022-11-19T20:59:21.429Z,10.60
2022-11-19T21:01:50.220Z,11.02
2022-11-19T21:04:18.497Z,10.35
2022-11-19T21:06:46.283Z,10.63
2022-11-19T21:09:15.746Z,9.95
2022-11-19T21:11:44.011Z,12.02
2022-11-19T21:14:11.936Z,8.80
2022-11-19T21:16:39.265Z,9.10
2022-11-19T21:19:06.515Z,10.65
2022-11-19T21:21:34.667Z,12.70
2022-11-19T21:24:01.943Z,9.15
2022-11-19T21:26:30.103Z,10.30
2022-11-19T21:28:58.637Z,9.65
2022-11-19T21:32:00.825Z,12.23
2022-11-19T21:34:28.122Z,10.18
2022-11-19T21:36:57.937Z,9.50
2022-11-19T21:39:26.154Z,10.70
2022-11-19T21:41:53.479Z,9.45
2022-11-19T21:44:22.039Z,9.98
2022-11-19T21:46:49.521Z,11.15
2022-11-19T21:49:16.784Z,10.63
2022-11-19T21:51:44.179Z,10.48
2022-11-19T21:54:11.405Z,11.45
2022-11-19T21:56:39.178Z,11.52
2022-11-19T21:59:07.323Z,13.02
2022-11-19T22:01:35.084Z,11.35
2022-11-19T22:04:02.604Z,12.25
2022-11-19T22:06:31.447Z,11.38
2022-11-19T22:08:58.752Z,11.75
2022-11-19T22:11:28.665Z,11.38
2022-11-19T22:14:01.219Z,12.00
2022-11-19T22:16:28.813Z,11.02
2022-11-19T22:18:56.222Z,10.75
2022-11-19T22:21:23.585Z,10.68
2022-11-19T22:23:52.633Z,11.65
2022-11-19T22:26:20.039Z,11.35
2022-11-19T22:28:47.284Z,12.43
2022-11-19T22:31:15.680Z,10.15
2022-11-19T22:33:43.141Z,10.27
2022-11-19T22:36:11.477Z,12.50
2022-11-19T22:38:39.669Z,10.43
2022-11-19T22:41:10.202Z,13.57
2022-11-19T22:43:38.656Z,10.52
2022-11-19T22:46:08.541Z,10.65
2022-11-19T22:48:36.750Z,12.10
2022-11-19T22:51:09.759Z,9.90
2022-11-19T22:53:38.162Z,9.80
2022-11-19T22:56:07.812Z,10.05
2022-11-19T22:58:35.972Z,11.07
2022-11-19T23:01:04.669Z,9.57
2022-11-19T23:03:32.082Z,10.20
2022-11-19T23:05:59.377Z,11.70
2022-11-19T23:08:27.058Z,10.35
2022-11-19T23:10:59.621Z,10.88
2022-11-19T23:13:32.834Z,11.40
2022-11-19T23:16:07.896Z,10.57
2022-11-19T23:18:38.486Z,10.88
2022-11-19T23:21:09.602Z,9.98
2022-11-19T23:23:37.176Z,10.80
2022-11-19T23:26:06.449Z,12.30
2022-11-19T23:28:35.726Z,9.93
2022-11-19T23:31:04.264Z,11.25
2022-11-19T23:33:31.757Z,10.07
2022-11-19T23:36:07.522Z,10.63
2022-11-19T23:38:38.405Z,12.73
2022-11-19T23:41:07.940Z,12.27
2022-11-19T23:43:36.129Z,10.20
2022-11-19T23:46:14.601Z,10.48
2022-11-19T23:48:44.188Z,10.30
2022-11-19T23:51:14.147Z,10.10
2022-11-19T23:53:42.032Z,9.98
2022-11-19T23:56:10.090Z,11.07
2022-11-19T23:58:37.956Z,9.88
